sensor_id;sensor_type;location;lat;lon;timestamp;temperature;humidity
25200;DHT22;33094;48.782;9.162;2024-01-30T00:01:28;5.70;99.90
25200;DHT22;33094;48.782;9.162;2024-01-30T00:03:54;5.60;99.90
25200;DHT22;33094;48.782;9.162;2024-01-30T00:06:19;5.60;99.90
25200;DHT22;33094;48.782;9.162;2024-01-30T00:08:49;5.40;99.90
25200;DHT22;33094;48.782;9.162;2024-01-30T00:11:15;5.30;99.90
25200;DHT22;33094;48.782;9.162;2024-01-30T00:13:41;5.30;99.90
25200;DHT22;33094;48.782;9.162;2024-01-30T00:16:07;5.30;99.90
25200;DHT22;33094;48.782;9.162;2024-01-30T00:18:33;5.50;99.90
25200;DHT22;33094;48.782;9.162;2024-01-30T00:20:58;5.40;99.90
25200;DHT22;33094;48.782;9.162;2024-01-30T00:23:24;5.50;99.90
25200;DHT22;33094;48.782;9.162;2024-01-30T00:25:50;5.30;99.90
25200;DHT22;33094;48.782;9.162;2024-01-30T00:28:16;5.10;99.90
25200;DHT22;33094;48.782;9.162;2024-01-30T00:30:41;5.10;99.90
25200;DHT22;33094;48.782;9.162;2024-01-30T00:33:08;5.10;99.90
25200;DHT22;33094;48.782;9.162;2024-01-30T00:35:34;5.00;99.90
25200;DHT22;33094;48.782;9.162;2024-01-30T00:38:00;5.10;99.90
25200;DHT22;33094;48.782;9.162;2024-01-30T00:40:26;5.00;99.90
25200;DHT22;33094;48.782;9.162;2024-01-30T00:42:51;5.10;99.90
25200;DHT22;33094;48.782;9.162;2024-01-30T00:45:17;5.00;99.90
25200;DHT22;33094;48.782;9.162;2024-01-30T00:47:43;5.10;99.90
25200;DHT22;33094;48.782;9.162;2024-01-30T00:50:09;5.30;99.90
25200;DHT22;33094;48.782;9.162;2024-01-30T00:52:42;5.40;99.90
25200;DHT22;33094;48.782;9.162;2024-01-30T00:55:10;5.40;99.90
25200;DHT22;33094;48.782;9.162;2024-01-30T00:57:36;5.40;99.90
25200;DHT22;33094;48.782;9.162;2024-01-30T01:00:02;5.30;99.90
25200;DHT22;33094;48.782;9.162;2024-01-30T01:02:28;5.20;99.90
25200;DHT22;33094;48.782;9.162;2024-01-30T01:04:54;5.10;99.90
25200;DHT22;33094;48.782;9.162;2024-01-30T01:07:20;5.20;99.90
25200;DHT22;33094;48.782;9.162;2024-01-30T01:09:49;5.30;99.90
25200;DHT22;33094;48.782;9.162;2024-01-30T01:12:15;5.40;99.90
25200;DHT22;33094;48.782;9.162;2024-01-30T01:14:41;5.30;99.90
25200;DHT22;33094;48.782;9.162;2024-01-30T01:17:07;5.40;99.90
25200;DHT22;33094;48.782;9.162;2024-01-30T01:19:32;5.30;99.90
25200;DHT22;33094;48.782;9.162;2024-01-30T01:21:58;5.20;99.90
25200;DHT22;33094;48.782;9.162;2024-01-30T01:24:24;5.10;99.90
25200;DHT22;33094;48.782;9.162;2024-01-30T01:26:49;4.90;99.90
25200;DHT22;33094;48.782;9.162;2024-01-30T01:29:15;4.90;99.90
25200;DHT22;33094;48.782;9.162;2024-01-30T01:31:41;4.90;99.90
25200;DHT22;33094;48.782;9.162;2024-01-30T01:34:13;4.80;99.90
25200;DHT22;33094;48.782;9.162;2024-01-30T01:36:39;4.90;99.90
25200;DHT22;33094;48.782;9.162;2024-01-30T01:39:11;5.00;99.90
25200;DHT22;33094;48.782;9.162;2024-01-30T01:41:37;5.20;99.90
25200;DHT22;33094;48.782;9.162;2024-01-30T01:44:03;5.10;99.90
25200;DHT22;33094;48.782;9.162;2024-01-30T01:46:30;4.90;99.90
25200;DHT22;33094;48.782;9.162;2024-01-30T01:48:58;4.90;99.90
25200;DHT22;33094;48.782;9.162;2024-01-30T01:51:27;4.90;99.90
25200;DHT22;33094;48.782;9.162;2024-01-30T01:53:54;4.90;99.90
25200;DHT22;33094;48.782;9.162;2024-01-30T01:56:22;4.90;99.90
25200;DHT22;33094;48.782;9.162;2024-01-30T01:58:50;4.90;99.90
25200;DHT22;33094;48.782;9.162;2024-01-30T02:01:19;4.80;99.90
25200;DHT22;33094;48.782;9.162;2024-01-30T02:03:47;4.70;99.90
25200;DHT22;33094;48.782;9.162;2024-01-30T02:06:13;4.70;99.90
25200;DHT22;33094;48.782;9.162;2024-01-30T02:08:40;4.80;99.90
25200;DHT22;33094;48.782;9.162;2024-01-30T02:11:06;4.80;99.90
25200;DHT22;33094;48.782;9.162;2024-01-30T02:13:31;4.80;99.90
25200;DHT22;33094;48.782;9.162;2024-01-30T02:15:58;4.90;99.90
25200;DHT22;33094;48.782;9.162;2024-01-30T02:18:24;5.10;99.90
25200;DHT22;33094;48.782;9.162;2024-01-30T02:20:53;5.00;99.90
25200;DHT22;33094;48.782;9.162;2024-01-30T02:23:21;4.90;99.90
25200;DHT22;33094;48.782;9.162;2024-01-30T02:25:47;5.00;99.90
25200;DHT22;33094;48.782;9.162;2024-01-30T02:28:13;4.90;99.90
25200;DHT22;33094;48.782;9.162;2024-01-30T02:30:48;4.90;99.90
25200;DHT22;33094;48.782;9.162;2024-01-30T02:33:13;4.90;99.90
25200;DHT22;33094;48.782;9.162;2024-01-30T02:35:40;4.80;99.90
25200;DHT22;33094;48.782;9.162;2024-01-30T02:38:06;4.60;99.90
25200;DHT22;33094;48.782;9.162;2024-01-30T02:40:32;4.60;99.90
25200;DHT22;33094;48.782;9.162;2024-01-30T02:42:59;4.60;99.90
25200;DHT22;33094;48.782;9.162;2024-01-30T02:45:25;4.60;99.90
25200;DHT22;33094;48.782;9.162;2024-01-30T02:47:51;4.60;99.90
25200;DHT22;33094;48.782;9.162;2024-01-30T02:50:17;4.50;99.90
25200;DHT22;33094;48.782;9.162;2024-01-30T02:52:43;4.50;99.90
25200;DHT22;33094;48.782;9.162;2024-01-30T02:55:11;4.50;99.90
25200;DHT22;33094;48.782;9.162;2024-01-30T02:57:37;4.60;99.90
25200;DHT22;33094;48.782;9.162;2024-01-30T03:00:05;4.60;99.90
25200;DHT22;33094;48.782;9.162;2024-01-30T03:02:32;4.60;99.90
25200;DHT22;33094;48.782;9.162;2024-01-30T03:04:58;4.70;99.90
25200;DHT22;33094;48.782;9.162;2024-01-30T03:07:23;4.70;99.90
25200;DHT22;33094;48.782;9.162;2024-01-30T03:09:49;4.70;99.90
25200;DHT22;33094;48.782;9.162;2024-01-30T03:12:15;4.60;99.90
25200;DHT22;33094;48.782;9.162;2024-01-30T03:14:40;4.70;99.90
25200;DHT22;33094;48.782;9.162;2024-01-30T03:17:06;4.50;99.90
25200;DHT22;33094;48.782;9.162;2024-01-30T03:19:31;4.50;99.90
25200;DHT22;33094;48.782;9.162;2024-01-30T03:21:57;4.50;99.90
25200;DHT22;33094;48.782;9.162;2024-01-30T03:24:23;4.60;99.90
25200;DHT22;33094;48.782;9.162;2024-01-30T03:26:48;4.30;99.90
25200;DHT22;33094;48.782;9.162;2024-01-30T03:29:14;4.40;99.90
25200;DHT22;33094;48.782;9.162;2024-01-30T03:31:39;4.40;99.90
25200;DHT22;33094;48.782;9.162;2024-01-30T03:34:05;4.40;99.90
25200;DHT22;33094;48.782;9.162;2024-01-30T03:36:31;4.40;99.90
25200;DHT22;33094;48.782;9.162;2024-01-30T03:38:59;4.30;99.90
25200;DHT22;33094;48.782;9.162;2024-01-30T03:41:24;4.30;99.90
25200;DHT22;33094;48.782;9.162;2024-01-30T03:43:50;4.40;99.90
25200;DHT22;33094;48.782;9.162;2024-01-30T03:46:17;4.20;99.90
25200;DHT22;33094;48.782;9.162;2024-01-30T03:48:45;4.30;99.90
25200;DHT22;33094;48.782;9.162;2024-01-30T03:51:11;4.40;99.90
25200;DHT22;33094;48.782;9.162;2024-01-30T03:53:40;4.50;99.90
25200;DHT22;33094;48.782;9.162;2024-01-30T03:56:06;4.60;99.90
25200;DHT22;33094;48.782;9.162;2024-01-30T03:58:32;4.40;99.90
25200;DHT22;33094;48.782;9.162;2024-01-30T04:00:58;4.40;99.90
25200;DHT22;33094;48.782;9.162;2024-01-30T04:03:23;4.50;99.90
25200;DHT22;33094;48.782;9.162;2024-01-30T04:05:51;4.30;99.90
25200;DHT22;33094;48.782;9.162;2024-01-30T04:08:16;4.30;99.90
25200;DHT22;33094;48.782;9.162;2024-01-30T04:10:42;4.30;99.90
25200;DHT22;33094;48.782;9.162;2024-01-30T04:13:08;4.20;99.90
25200;DHT22;33094;48.782;9.162;2024-01-30T04:15:34;4.20;99.90
25200;DHT22;33094;48.782;9.162;2024-01-30T04:18:01;4.20;99.90
25200;DHT22;33094;48.782;9.162;2024-01-30T04:20:27;4.40;99.90
25200;DHT22;33094;48.782;9.162;2024-01-30T04:22:52;4.50;99.90
25200;DHT22;33094;48.782;9.162;2024-01-30T04:25:18;4.50;99.90
25200;DHT22;33094;48.782;9.162;2024-01-30T04:27:46;4.50;99.90
25200;DHT22;33094;48.782;9.162;2024-01-30T04:30:12;4.30;99.90
25200;DHT22;33094;48.782;9.162;2024-01-30T04:32:37;4.20;99.90
25200;DHT22;33094;48.782;9.162;2024-01-30T04:35:03;4.10;99.90
25200;DHT22;33094;48.782;9.162;2024-01-30T04:37:29;4.10;99.90
25200;DHT22;33094;48.782;9.162;2024-01-30T04:39:55;4.00;99.90
25200;DHT22;33094;48.782;9.162;2024-01-30T04:42:20;4.10;99.90
25200;DHT22;33094;48.782;9.162;2024-01-30T04:44:46;4.10;99.90
25200;DHT22;33094;48.782;9.162;2024-01-30T04:47:12;4.10;99.90
25200;DHT22;33094;48.782;9.162;2024-01-30T04:49:40;4.30;99.90
25200;DHT22;33094;48.782;9.162;2024-01-30T04:52:07;4.20;99.90
25200;DHT22;33094;48.782;9.162;2024-01-30T04:54:33;4.20;99.90
25200;DHT22;33094;48.782;9.162;2024-01-30T04:56:59;4.10;99.90
25200;DHT22;33094;48.782;9.162;2024-01-30T04:59:27;4.00;99.90
25200;DHT22;33094;48.782;9.162;2024-01-30T05:01:53;4.10;99.90
25200;DHT22;33094;48.782;9.162;2024-01-30T05:04:20;4.20;99.90
25200;DHT22;33094;48.782;9.162;2024-01-30T05:06:46;4.20;99.90
25200;DHT22;33094;48.782;9.162;2024-01-30T05:09:12;4.20;99.90
25200;DHT22;33094;48.782;9.162;2024-01-30T05:11:41;4.10;99.90
25200;DHT22;33094;48.782;9.162;2024-01-30T05:14:07;4.00;99.90
25200;DHT22;33094;48.782;9.162;2024-01-30T05:16:34;4.10;99.90
25200;DHT22;33094;48.782;9.162;2024-01-30T05:18:59;4.10;99.90
25200;DHT22;33094;48.782;9.162;2024-01-30T05:21:25;4.20;99.90
25200;DHT22;33094;48.782;9.162;2024-01-30T05:23:51;4.30;99.90
25200;DHT22;33094;48.782;9.162;2024-01-30T05:26:17;4.30;99.90
25200;DHT22;33094;48.782;9.162;2024-01-30T05:28:43;4.30;99.90
25200;DHT22;33094;48.782;9.162;2024-01-30T05:31:11;4.40;99.90
25200;DHT22;33094;48.782;9.162;2024-01-30T05:33:37;4.50;99.90
25200;DHT22;33094;48.782;9.162;2024-01-30T05:36:03;4.40;99.90
25200;DHT22;33094;48.782;9.162;2024-01-30T05:38:29;4.30;99.90
25200;DHT22;33094;48.782;9.162;2024-01-30T05:40:55;4.30;99.90
25200;DHT22;33094;48.782;9.162;2024-01-30T05:43:20;4.40;99.90
25200;DHT22;33094;48.782;9.162;2024-01-30T05:45:46;4.40;99.90
25200;DHT22;33094;48.782;9.162;2024-01-30T05:48:12;4.40;99.90
25200;DHT22;33094;48.782;9.162;2024-01-30T05:50:37;4.40;99.90
25200;DHT22;33094;48.782;9.162;2024-01-30T05:53:03;4.50;99.90
25200;DHT22;33094;48.782;9.162;2024-01-30T05:55:29;4.30;99.90
25200;DHT22;33094;48.782;9.162;2024-01-30T05:57:56;4.50;99.90
25200;DHT22;33094;48.782;9.162;2024-01-30T06:00:21;4.40;99.90
25200;DHT22;33094;48.782;9.162;2024-01-30T06:02:47;4.40;99.90
25200;DHT22;33094;48.782;9.162;2024-01-30T06:05:12;4.60;99.90
25200;DHT22;33094;48.782;9.162;2024-01-30T06:07:38;4.50;99.90
25200;DHT22;33094;48.782;9.162;2024-01-30T06:10:04;4.50;99.90
25200;DHT22;33094;48.782;9.162;2024-01-30T06:12:34;4.60;99.90
25200;DHT22;33094;48.782;9.162;2024-01-30T06:15:00;4.50;99.90
25200;DHT22;33094;48.782;9.162;2024-01-30T06:17:27;4.40;99.90
25200;DHT22;33094;48.782;9.162;2024-01-30T06:19:53;4.50;99.90
25200;DHT22;33094;48.782;9.162;2024-01-30T06:22:19;4.40;99.90
25200;DHT22;33094;48.782;9.162;2024-01-30T06:24:45;4.40;99.90
25200;DHT22;33094;48.782;9.162;2024-01-30T06:27:14;4.40;99.90
25200;DHT22;33094;48.782;9.162;2024-01-30T06:29:45;4.30;99.90
25200;DHT22;33094;48.782;9.162;2024-01-30T06:32:11;4.20;99.90
25200;DHT22;33094;48.782;9.162;2024-01-30T06:34:36;4.10;99.90
25200;DHT22;33094;48.782;9.162;2024-01-30T06:37:04;4.10;99.90
25200;DHT22;33094;48.782;9.162;2024-01-30T06:39:29;4.20;99.90
25200;DHT22;33094;48.782;9.162;2024-01-30T06:41:56;4.10;99.90
25200;DHT22;33094;48.782;9.162;2024-01-30T06:44:22;4.10;99.90
25200;DHT22;33094;48.782;9.162;2024-01-30T06:46:47;4.10;99.90
25200;DHT22;33094;48.782;9.162;2024-01-30T06:49:13;4.20;99.90
25200;DHT22;33094;48.782;9.162;2024-01-30T06:51:39;4.20;99.90
25200;DHT22;33094;48.782;9.162;2024-01-30T06:54:05;4.20;99.90
25200;DHT22;33094;48.782;9.162;2024-01-30T06:56:30;4.10;99.90
25200;DHT22;33094;48.782;9.162;2024-01-30T06:58:56;4.20;99.90
25200;DHT22;33094;48.782;9.162;2024-01-30T07:01:28;4.20;99.90
25200;DHT22;33094;48.782;9.162;2024-01-30T07:03:54;4.20;99.90
25200;DHT22;33094;48.782;9.162;2024-01-30T07:06:20;4.20;99.90
25200;DHT22;33094;48.782;9.162;2024-01-30T07:08:49;4.20;99.90
25200;DHT22;33094;48.782;9.162;2024-01-30T07:11:21;4.20;99.90
25200;DHT22;33094;48.782;9.162;2024-01-30T07:13:51;4.20;99.90
25200;DHT22;33094;48.782;9.162;2024-01-30T07:16:16;4.20;99.90
25200;DHT22;33094;48.782;9.162;2024-01-30T07:18:43;4.30;99.90
25200;DHT22;33094;48.782;9.162;2024-01-30T07:21:09;4.40;99.90
25200;DHT22;33094;48.782;9.162;2024-01-30T07:23:35;4.30;99.90
25200;DHT22;33094;48.782;9.162;2024-01-30T07:26:07;4.40;99.90
25200;DHT22;33094;48.782;9.162;2024-01-30T07:28:34;4.30;99.90
25200;DHT22;33094;48.782;9.162;2024-01-30T07:31:01;4.40;99.90
25200;DHT22;33094;48.782;9.162;2024-01-30T07:33:27;4.40;99.90
25200;DHT22;33094;48.782;9.162;2024-01-30T07:35:54;4.50;99.90
25200;DHT22;33094;48.782;9.162;2024-01-30T07:38:21;4.60;99.90
25200;DHT22;33094;48.782;9.162;2024-01-30T07:40:46;4.60;99.90
25200;DHT22;33094;48.782;9.162;2024-01-30T07:43:12;4.60;99.90
25200;DHT22;33094;48.782;9.162;2024-01-30T07:45:38;4.60;99.90
25200;DHT22;33094;48.782;9.162;2024-01-30T07:48:05;4.70;99.90
25200;DHT22;33094;48.782;9.162;2024-01-30T07:50:31;4.70;99.90
25200;DHT22;33094;48.782;9.162;2024-01-30T07:53:00;4.80;99.90
25200;DHT22;33094;48.782;9.162;2024-01-30T07:55:26;4.80;99.90
25200;DHT22;33094;48.782;9.162;2024-01-30T07:59:46;4.70;99.90
25200;DHT22;33094;48.782;9.162;2024-01-30T08:02:14;4.70;99.90
25200;DHT22;33094;48.782;9.162;2024-01-30T08:04:40;4.50;99.90
25200;DHT22;33094;48.782;9.162;2024-01-30T08:07:07;4.60;99.90
25200;DHT22;33094;48.782;9.162;2024-01-30T08:09:32;4.80;99.90
25200;DHT22;33094;48.782;9.162;2024-01-30T08:11:58;4.70;99.90
25200;DHT22;33094;48.782;9.162;2024-01-30T08:14:24;4.80;99.90
25200;DHT22;33094;48.782;9.162;2024-01-30T08:16:51;5.10;99.90
25200;DHT22;33094;48.782;9.162;2024-01-30T08:19:18;5.30;99.90
25200;DHT22;33094;48.782;9.162;2024-01-30T08:21:44;5.40;99.90
25200;DHT22;33094;48.782;9.162;2024-01-30T08:24:11;5.50;99.90
25200;DHT22;33094;48.782;9.162;2024-01-30T08:26:38;5.60;99.90
25200;DHT22;33094;48.782;9.162;2024-01-30T08:29:04;5.70;99.90
25200;DHT22;33094;48.782;9.162;2024-01-30T08:31:29;5.80;99.90
25200;DHT22;33094;48.782;9.162;2024-01-30T08:33:55;5.90;99.90
25200;DHT22;33094;48.782;9.162;2024-01-30T08:36:21;6.00;99.90
25200;DHT22;33094;48.782;9.162;2024-01-30T08:38:46;6.10;99.90
25200;DHT22;33094;48.782;9.162;2024-01-30T08:41:12;6.20;99.90
25200;DHT22;33094;48.782;9.162;2024-01-30T08:43:38;6.40;99.90
25200;DHT22;33094;48.782;9.162;2024-01-30T08:46:03;6.50;99.90
25200;DHT22;33094;48.782;9.162;2024-01-30T08:48:29;6.50;99.90
25200;DHT22;33094;48.782;9.162;2024-01-30T08:50:55;6.40;99.90
25200;DHT22;33094;48.782;9.162;2024-01-30T08:53:20;6.40;99.90
25200;DHT22;33094;48.782;9.162;2024-01-30T08:55:46;6.50;99.90
25200;DHT22;33094;48.782;9.162;2024-01-30T08:58:11;6.50;99.90
25200;DHT22;33094;48.782;9.162;2024-01-30T09:00:37;6.50;99.90
25200;DHT22;33094;48.782;9.162;2024-01-30T09:03:03;6.50;99.90
25200;DHT22;33094;48.782;9.162;2024-01-30T09:05:29;6.50;99.90
25200;DHT22;33094;48.782;9.162;2024-01-30T09:07:55;6.70;99.90
25200;DHT22;33094;48.782;9.162;2024-01-30T09:10:21;6.70;99.90
25200;DHT22;33094;48.782;9.162;2024-01-30T09:12:47;6.80;99.90
25200;DHT22;33094;48.782;9.162;2024-01-30T09:15:13;6.80;99.90
25200;DHT22;33094;48.782;9.162;2024-01-30T09:17:39;6.90;99.90
25200;DHT22;33094;48.782;9.162;2024-01-30T09:20:05;7.00;99.90
25200;DHT22;33094;48.782;9.162;2024-01-30T09:22:31;7.00;99.90
25200;DHT22;33094;48.782;9.162;2024-01-30T09:24:57;7.00;99.90
25200;DHT22;33094;48.782;9.162;2024-01-30T09:27:23;7.00;99.90
25200;DHT22;33094;48.782;9.162;2024-01-30T09:29:49;7.30;99.90
25200;DHT22;33094;48.782;9.162;2024-01-30T09:32:16;7.30;99.90
25200;DHT22;33094;48.782;9.162;2024-01-30T09:34:43;7.40;99.90
25200;DHT22;33094;48.782;9.162;2024-01-30T09:37:08;7.60;99.90
25200;DHT22;33094;48.782;9.162;2024-01-30T09:39:34;7.80;99.90
